sensor_id;sensor_type;location;lat;lon;timestamp;temperature;humidity
75155;HTU21D;63735;44.730;37.818;2023-07-09T00:01:57;24.78;79.98
75155;HTU21D;63735;44.730;37.818;2023-07-09T00:04:23;24.80;79.98
75155;HTU21D;63735;44.730;37.818;2023-07-09T00:06:50;24.80;80.01
75155;HTU21D;63735;44.730;37.818;2023-07-09T00:09:18;24.80;80.04
75155;HTU21D;63735;44.730;37.818;2023-07-09T00:11:45;24.82;80.04
75155;HTU21D;63735;44.730;37.818;2023-07-09T00:14:14;24.84;80.00
75155;HTU21D;63735;44.730;37.818;2023-07-09T00:16:42;24.84;79.97
75155;HTU21D;63735;44.730;37.818;2023-07-09T00:19:12;24.80;80.04
75155;HTU21D;63735;44.730;37.818;2023-07-09T00:21:44;24.75;80.18
75155;HTU21D;63735;44.730;37.818;2023-07-09T00:24:11;24.73;80.24
75155;HTU21D;63735;44.730;37.818;2023-07-09T00:26:38;24.73;80.06
75155;HTU21D;63735;44.730;37.818;2023-07-09T00:29:04;24.71;80.07
75155;HTU21D;63735;44.730;37.818;2023-07-09T00:31:30;24.70;80.15
75155;HTU21D;63735;44.730;37.818;2023-07-09T00:33:56;24.72;80.16
75155;HTU21D;63735;44.730;37.818;2023-07-09T00:36:30;24.73;80.14
75155;HTU21D;63735;44.730;37.818;2023-07-09T00:39:00;24.74;80.12
75155;HTU21D;63735;44.730;37.818;2023-07-09T00:41:37;24.78;80.08
75155;HTU21D;63735;44.730;37.818;2023-07-09T00:49:31;24.84;79.90
75155;HTU21D;63735;44.730;37.818;2023-07-09T00:52:05;24.85;79.87
75155;HTU21D;63735;44.730;37.818;2023-07-09T00:54:41;24.86;79.85
75155;HTU21D;63735;44.730;37.818;2023-07-09T00:57:15;24.85;79.79
75155;HTU21D;63735;44.730;37.818;2023-07-09T00:59:46;24.87;79.72
75155;HTU21D;63735;44.730;37.818;2023-07-09T01:02:14;24.88;79.69
75155;HTU21D;63735;44.730;37.818;2023-07-09T01:04:41;24.90;79.66
75155;HTU21D;63735;44.730;37.818;2023-07-09T01:07:08;24.89;79.61
75155;HTU21D;63735;44.730;37.818;2023-07-09T01:09:34;24.90;79.56
75155;HTU21D;63735;44.730;37.818;2023-07-09T01:12:08;24.90;79.57
75155;HTU21D;63735;44.730;37.818;2023-07-09T01:14:36;24.92;79.52
75155;HTU21D;63735;44.730;37.818;2023-07-09T01:17:06;24.93;79.42
75155;HTU21D;63735;44.730;37.818;2023-07-09T01:19:39;24.97;79.33
75155;HTU21D;63735;44.730;37.818;2023-07-09T01:22:16;24.99;79.24
75155;HTU21D;63735;44.730;37.818;2023-07-09T01:25:05;25.00;79.21
75155;HTU21D;63735;44.730;37.818;2023-07-09T01:27:35;25.00;79.14
75155;HTU21D;63735;44.730;37.818;2023-07-09T01:30:09;25.01;79.14
75155;HTU21D;63735;44.730;37.818;2023-07-09T01:32:37;25.00;79.13
75155;HTU21D;63735;44.730;37.818;2023-07-09T01:35:05;25.01;79.09
75155;HTU21D;63735;44.730;37.818;2023-07-09T01:37:36;25.02;79.06
75155;HTU21D;63735;44.730;37.818;2023-07-09T01:40:04;25.01;79.01
75155;HTU21D;63735;44.730;37.818;2023-07-09T01:42:35;25.04;78.95
75155;HTU21D;63735;44.730;37.818;2023-07-09T01:45:06;25.04;78.92
75155;HTU21D;63735;44.730;37.818;2023-07-09T01:47:32;25.05;78.91
75155;HTU21D;63735;44.730;37.818;2023-07-09T01:49:58;25.07;78.86
75155;HTU21D;63735;44.730;37.818;2023-07-09T01:52:29;25.08;78.81
75155;HTU21D;63735;44.730;37.818;2023-07-09T01:54:56;25.09;78.77
75155;HTU21D;63735;44.730;37.818;2023-07-09T01:57:26;25.12;78.73
75155;HTU21D;63735;44.730;37.818;2023-07-09T02:00:01;25.14;78.66
75155;HTU21D;63735;44.730;37.818;2023-07-09T02:02:27;25.14;78.58
75155;HTU21D;63735;44.730;37.818;2023-07-09T02:04:55;25.16;78.62
75155;HTU21D;63735;44.730;37.818;2023-07-09T02:07:23;25.20;78.57
75155;HTU21D;63735;44.730;37.818;2023-07-09T02:09:49;25.21;78.54
75155;HTU21D;63735;44.730;37.818;2023-07-09T02:12:16;25.20;78.51
75155;HTU21D;63735;44.730;37.818;2023-07-09T02:14:43;25.21;78.43
75155;HTU21D;63735;44.730;37.818;2023-07-09T02:17:10;25.20;78.43
75155;HTU21D;63735;44.730;37.818;2023-07-09T02:19:36;25.23;78.36
75155;HTU21D;63735;44.730;37.818;2023-07-09T02:22:03;25.22;78.36
75155;HTU21D;63735;44.730;37.818;2023-07-09T02:24:31;25.23;78.53
75155;HTU21D;63735;44.730;37.818;2023-07-09T02:26:59;25.24;78.65
75155;HTU21D;63735;44.730;37.818;2023-07-09T02:29:26;25.22;78.76
75155;HTU21D;63735;44.730;37.818;2023-07-09T02:31:54;25.22;78.93
75155;HTU21D;63735;44.730;37.818;2023-07-09T02:34:21;25.23;78.88
75155;HTU21D;63735;44.730;37.818;2023-07-09T02:36:55;25.23;78.72
75155;HTU21D;63735;44.730;37.818;2023-07-09T02:39:22;25.27;78.55
75155;HTU21D;63735;44.730;37.818;2023-07-09T02:41:48;25.30;78.41
75155;HTU21D;63735;44.730;37.818;2023-07-09T02:44:15;25.29;78.32
75155;HTU21D;63735;44.730;37.818;2023-07-09T02:46:42;25.30;78.27
75155;HTU21D;63735;44.730;37.818;2023-07-09T02:49:10;25.31;78.19
75155;HTU21D;63735;44.730;37.818;2023-07-09T02:51:37;25.31;78.12
75155;HTU21D;63735;44.730;37.818;2023-07-09T02:54:03;25.30;78.08
75155;HTU21D;63735;44.730;37.818;2023-07-09T02:56:30;25.32;78.05
75155;HTU21D;63735;44.730;37.818;2023-07-09T02:58:56;25.32;78.02
75155;HTU21D;63735;44.730;37.818;2023-07-09T03:01:22;25.32;78.04
75155;HTU21D;63735;44.730;37.818;2023-07-09T03:03:51;25.35;77.96
75155;HTU21D;63735;44.730;37.818;2023-07-09T03:06:23;25.37;77.90
75155;HTU21D;63735;44.730;37.818;2023-07-09T03:08:49;25.38;77.88
75155;HTU21D;63735;44.730;37.818;2023-07-09T03:11:16;25.40;77.85
75155;HTU21D;63735;44.730;37.818;2023-07-09T03:13:42;25.43;77.84
75155;HTU21D;63735;44.730;37.818;2023-07-09T03:16:08;25.40;77.91
75155;HTU21D;63735;44.730;37.818;2023-07-09T03:18:34;25.40;78.02
75155;HTU21D;63735;44.730;37.818;2023-07-09T03:21:00;25.40;78.10
75155;HTU21D;63735;44.730;37.818;2023-07-09T03:23:26;25.44;78.04
75155;HTU21D;63735;44.730;37.818;2023-07-09T03:25:54;25.46;77.87
75155;HTU21D;63735;44.730;37.818;2023-07-09T03:28:20;25.47;77.74
75155;HTU21D;63735;44.730;37.818;2023-07-09T03:30:48;25.47;77.66
75155;HTU21D;63735;44.730;37.818;2023-07-09T03:33:15;25.47;77.50
75155;HTU21D;63735;44.730;37.818;2023-07-09T03:35:42;25.47;77.31
75155;HTU21D;63735;44.730;37.818;2023-07-09T03:38:09;25.47;77.18
75155;HTU21D;63735;44.730;37.818;2023-07-09T03:40:36;25.47;77.04
75155;HTU21D;63735;44.730;37.818;2023-07-09T03:43:04;25.51;76.76
75155;HTU21D;63735;44.730;37.818;2023-07-09T03:45:30;25.56;76.43
75155;HTU21D;63735;44.730;37.818;2023-07-09T03:47:56;25.59;76.20
75155;HTU21D;63735;44.730;37.818;2023-07-09T03:50:22;25.64;76.08
75155;HTU21D;63735;44.730;37.818;2023-07-09T03:52:48;25.67;76.10
75155;HTU21D;63735;44.730;37.818;2023-07-09T03:55:14;25.71;76.13
75155;HTU21D;63735;44.730;37.818;2023-07-09T03:57:40;25.76;76.10
75155;HTU21D;63735;44.730;37.818;2023-07-09T04:00:07;25.81;75.99
75155;HTU21D;63735;44.730;37.818;2023-07-09T04:02:42;25.87;75.87
75155;HTU21D;63735;44.730;37.818;2023-07-09T04:05:11;25.89;75.73
75155;HTU21D;63735;44.730;37.818;2023-07-09T04:07:38;25.92;75.67
75155;HTU21D;63735;44.730;37.818;2023-07-09T04:10:05;25.89;75.49
75155;HTU21D;63735;44.730;37.818;2023-07-09T04:12:31;25.87;75.48
75155;HTU21D;63735;44.730;37.818;2023-07-09T04:14:58;25.87;75.39
75155;HTU21D;63735;44.730;37.818;2023-07-09T04:17:24;25.87;75.36
75155;HTU21D;63735;44.730;37.818;2023-07-09T04:19:50;25.90;75.21
75155;HTU21D;63735;44.730;37.818;2023-07-09T04:22:17;25.90;75.15
75155;HTU21D;63735;44.730;37.818;2023-07-09T04:24:43;25.90;75.12
75155;HTU21D;63735;44.730;37.818;2023-07-09T04:27:09;25.93;74.95
75155;HTU21D;63735;44.730;37.818;2023-07-09T04:29:36;25.93;74.82
75155;HTU21D;63735;44.730;37.818;2023-07-09T04:32:05;25.93;74.76
75155;HTU21D;63735;44.730;37.818;2023-07-09T04:34:31;25.97;74.67
75155;HTU21D;63735;44.730;37.818;2023-07-09T04:36:57;26.04;74.53
75155;HTU21D;63735;44.730;37.818;2023-07-09T04:39:23;26.03;74.29
75155;HTU21D;63735;44.730;37.818;2023-07-09T04:41:49;26.03;74.35
75155;HTU21D;63735;44.730;37.818;2023-07-09T04:44:15;26.03;74.22
75155;HTU21D;63735;44.730;37.818;2023-07-09T04:46:41;26.02;74.22
75155;HTU21D;63735;44.730;37.818;2023-07-09T04:49:08;25.98;74.18
75155;HTU21D;63735;44.730;37.818;2023-07-09T04:51:37;25.97;74.12
75155;HTU21D;63735;44.730;37.818;2023-07-09T04:54:03;25.99;74.07
75155;HTU21D;63735;44.730;37.818;2023-07-09T04:56:29;26.08;73.83
75155;HTU21D;63735;44.730;37.818;2023-07-09T04:58:56;26.12;73.76
75155;HTU21D;63735;44.730;37.818;2023-07-09T05:01:22;26.13;73.63
75155;HTU21D;63735;44.730;37.818;2023-07-09T05:03:48;26.15;73.63
75155;HTU21D;63735;44.730;37.818;2023-07-09T05:06:14;26.13;73.66
75155;HTU21D;63735;44.730;37.818;2023-07-09T05:08:41;26.09;73.84
75155;HTU21D;63735;44.730;37.818;2023-07-09T05:11:08;26.06;73.96
75155;HTU21D;63735;44.730;37.818;2023-07-09T05:13:38;26.06;74.02
75155;HTU21D;63735;44.730;37.818;2023-07-09T05:16:04;26.10;73.94
75155;HTU21D;63735;44.730;37.818;2023-07-09T05:18:30;26.11;73.83
75155;HTU21D;63735;44.730;37.818;2023-07-09T05:20:55;26.13;73.86
75155;HTU21D;63735;44.730;37.818;2023-07-09T05:23:24;26.18;73.80
75155;HTU21D;63735;44.730;37.818;2023-07-09T05:26:01;26.22;73.75
75155;HTU21D;63735;44.730;37.818;2023-07-09T05:28:28;26.26;73.61
75155;HTU21D;63735;44.730;37.818;2023-07-09T05:30:54;26.30;73.52
75155;HTU21D;63735;44.730;37.818;2023-07-09T05:33:21;26.36;73.51
75155;HTU21D;63735;44.730;37.818;2023-07-09T05:35:47;26.49;73.22
75155;HTU21D;63735;44.730;37.818;2023-07-09T05:38:14;26.53;73.01
75155;HTU21D;63735;44.730;37.818;2023-07-09T05:40:40;26.57;73.01
75155;HTU21D;63735;44.730;37.818;2023-07-09T05:43:06;26.54;72.86
75155;HTU21D;63735;44.730;37.818;2023-07-09T05:45:32;26.48;72.70
75155;HTU21D;63735;44.730;37.818;2023-07-09T05:47:59;26.47;72.64
75155;HTU21D;63735;44.730;37.818;2023-07-09T05:50:25;26.52;72.41
75155;HTU21D;63735;44.730;37.818;2023-07-09T05:52:51;26.53;72.34
75155;HTU21D;63735;44.730;37.818;2023-07-09T05:55:17;26.63;72.13
75155;HTU21D;63735;44.730;37.818;2023-07-09T05:57:43;26.70;71.64
75155;HTU21D;63735;44.730;37.818;2023-07-09T06:00:09;26.65;71.61
75155;HTU21D;63735;44.730;37.818;2023-07-09T06:02:42;26.68;71.64
75155;HTU21D;63735;44.730;37.818;2023-07-09T06:05:08;26.71;71.55
75155;HTU21D;63735;44.730;37.818;2023-07-09T06:07:38;26.80;71.34
75155;HTU21D;63735;44.730;37.818;2023-07-09T06:10:06;26.79;71.41
75155;HTU21D;63735;44.730;37.818;2023-07-09T06:12:32;26.77;71.47
75155;HTU21D;63735;44.730;37.818;2023-07-09T06:14:57;26.73;71.61
75155;HTU21D;63735;44.730;37.818;2023-07-09T06:17:23;26.69;71.53
75155;HTU21D;63735;44.730;37.818;2023-07-09T06:19:49;26.71;71.71
75155;HTU21D;63735;44.730;37.818;2023-07-09T06:22:15;26.71;71.76
75155;HTU21D;63735;44.730;37.818;2023-07-09T06:24:41;26.78;71.74
75155;HTU21D;63735;44.730;37.818;2023-07-09T06:27:07;26.77;71.78
75155;HTU21D;63735;44.730;37.818;2023-07-09T06:29:33;26.73;71.94
75155;HTU21D;63735;44.730;37.818;2023-07-09T06:31:59;26.75;71.96
75155;HTU21D;63735;44.730;37.818;2023-07-09T06:34:25;26.69;72.12
75155;HTU21D;63735;44.730;37.818;2023-07-09T06:36:51;26.71;72.09
75155;HTU21D;63735;44.730;37.818;2023-07-09T06:39:18;26.71;71.83
75155;HTU21D;63735;44.730;37.818;2023-07-09T06:41:45;26.70;71.67
75155;HTU21D;63735;44.730;37.818;2023-07-09T06:44:31;26.76;71.67
75155;HTU21D;63735;44.730;37.818;2023-07-09T06:46:57;26.79;71.67
75155;HTU21D;63735;44.730;37.818;2023-07-09T06:49:22;26.95;71.35
75155;HTU21D;63735;44.730;37.818;2023-07-09T06:51:48;27.04;70.96
75155;HTU21D;63735;44.730;37.818;2023-07-09T06:54:14;27.11;70.97
75155;HTU21D;63735;44.730;37.818;2023-07-09T06:56:41;27.27;70.70
75155;HTU21D;63735;44.730;37.818;2023-07-09T06:59:07;27.29;70.41
75155;HTU21D;63735;44.730;37.818;2023-07-09T07:01:33;27.25;70.58
75155;HTU21D;63735;44.730;37.818;2023-07-09T07:03:59;27.17;70.71
75155;HTU21D;63735;44.730;37.818;2023-07-09T07:06:26;27.22;70.87
75155;HTU21D;63735;44.730;37.818;2023-07-09T07:08:52;27.25;71.26
75155;HTU21D;63735;44.730;37.818;2023-07-09T07:11:18;27.16;71.82
75155;HTU21D;63735;44.730;37.818;2023-07-09T07:13:44;27.14;72.22
75155;HTU21D;63735;44.730;37.818;2023-07-09T07:16:12;26.96;72.71
75155;HTU21D;63735;44.730;37.818;2023-07-09T07:18:38;26.76;73.51
75155;HTU21D;63735;44.730;37.818;2023-07-09T07:21:05;26.57;74.12
75155;HTU21D;63735;44.730;37.818;2023-07-09T07:23:31;26.50;74.30
75155;HTU21D;63735;44.730;37.818;2023-07-09T07:25:57;26.47;74.36
75155;HTU21D;63735;44.730;37.818;2023-07-09T07:28:23;26.37;74.66
75155;HTU21D;63735;44.730;37.818;2023-07-09T07:31:04;26.40;74.70
75155;HTU21D;63735;44.730;37.818;2023-07-09T07:33:31;26.42;74.48
75155;HTU21D;63735;44.730;37.818;2023-07-09T07:35:56;26.33;74.60
75155;HTU21D;63735;44.730;37.818;2023-07-09T07:38:26;26.24;74.76
75155;HTU21D;63735;44.730;37.818;2023-07-09T07:41:02;26.19;74.75
75155;HTU21D;63735;44.730;37.818;2023-07-09T07:43:36;26.10;74.73
75155;HTU21D;63735;44.730;37.818;2023-07-09T07:46:02;26.05;74.70
75155;HTU21D;63735;44.730;37.818;2023-07-09T07:48:31;25.98;74.84
75155;HTU21D;63735;44.730;37.818;2023-07-09T07:51:01;25.97;75.05
75155;HTU21D;63735;44.730;37.818;2023-07-09T07:53:29;25.95;74.99
75155;HTU21D;63735;44.730;37.818;2023-07-09T07:56:02;25.91;75.09
75155;HTU21D;63735;44.730;37.818;2023-07-09T07:58:35;25.91;75.16
75155;HTU21D;63735;44.730;37.818;2023-07-09T08:01:07;25.94;75.10
75155;HTU21D;63735;44.730;37.818;2023-07-09T08:03:33;26.01;75.03
75155;HTU21D;63735;44.730;37.818;2023-07-09T08:05:59;26.03;74.80
75155;HTU21D;63735;44.730;37.818;2023-07-09T08:08:26;25.96;74.95
75155;HTU21D;63735;44.730;37.818;2023-07-09T08:11:03;25.93;75.01
75155;HTU21D;63735;44.730;37.818;2023-07-09T08:13:32;25.92;74.95
75155;HTU21D;63735;44.730;37.818;2023-07-09T08:15:58;25.95;74.83
75155;HTU21D;63735;44.730;37.818;2023-07-09T08:18:24;26.04;74.47
75155;HTU21D;63735;44.730;37.818;2023-07-09T08:20:52;26.15;74.31
75155;HTU21D;63735;44.730;37.818;2023-07-09T08:23:19;26.20;74.13
75155;HTU21D;63735;44.730;37.818;2023-07-09T08:25:55;26.20;74.12
75155;HTU21D;63735;44.730;37.818;2023-07-09T08:28:22;26.16;74.24
75155;HTU21D;63735;44.730;37.818;2023-07-09T08:30:53;26.07;74.42
75155;HTU21D;63735;44.730;37.818;2023-07-09T08:33:25;26.06;74.59
75155;HTU21D;63735;44.730;37.818;2023-07-09T08:35:53;26.15;74.41
75155;HTU21D;63735;44.730;37.818;2023-07-09T08:38:23;26.19;74.17
75155;HTU21D;63735;44.730;37.818;2023-07-09T08:41:06;26.22;73.96
75155;HTU21D;63735;44.730;37.818;2023-07-09T08:49:29;26.30;73.49
75155;HTU21D;63735;44.730;37.818;2023-07-09T08:51:59;26.41;73.40
75155;HTU21D;63735;44.730;37.818;2023-07-09T08:54:33;26.47;73.35
75155;HTU21D;63735;44.730;37.818;2023-07-09T08:59:45;26.47;73.58
75155;HTU21D;63735;44.730;37.818;2023-07-09T09:02:26;26.54;73.43
75155;HTU21D;63735;44.730;37.818;2023-07-09T09:04:53;26.56;72.99
75155;HTU21D;63735;44.730;37.818;2023-07-09T09:07:38;26.58;72.99
75155;HTU21D;63735;44.730;37.818;2023-07-09T09:10:13;26.60;72.93
75155;HTU21D;63735;44.730;37.818;2023-07-09T09:12:59;26.72;72.64
75155;HTU21D;63735;44.730;37.818;2023-07-09T09:15:28;26.79;72.47
75155;HTU21D;63735;44.730;37.818;2023-07-09T09:18:01;26.75;72.32
75155;HTU21D;63735;44.730;37.818;2023-07-09T09:20:35;26.76;72.38
75155;HTU21D;63735;44.730;37.818;2023-07-09T09:25:39;26.60;72.78
75155;HTU21D;63735;44.730;37.818;2023-07-09T09:28:09;26.62;72.54
75155;HTU21D;63735;44.730;37.818;2023-07-09T09:30:37;26.47;72.58
75155;HTU21D;63735;44.730;37.818;2023-07-09T09:33:12;26.48;72.61
75155;HTU21D;63735;44.730;37.818;2023-07-09T09:35:44;26.39;72.38
75155;HTU21D;63735;44.730;37.818;2023-07-09T09:38:13;26.37;72.38
75155;HTU21D;63735;44.730;37.818;2023-07-09T09:40:41;26.38;72.23
75155;HTU21D;63735;44.730;37.818;2023-07-09T09:43:17;26.41;72.13
75155;HTU21D;63735;44.730;37.818;2023-07-09T09:45:45;26.45;72.11
75155;HTU21D;63735;44.730;37.818;2023-07-09T09:48:39;26.39;71.96
75155;HTU21D;63735;44.730;37.818;2023-07-09T09:51:05;26.31;72.15
75155;HTU21D;63735;44.730;37.818;2023-07-09T09:53:38;26.32;72.03
75155;HTU21D;63735;44.730;37.818;2023-07-09T09:56:07;26.39;71.51
75155;HTU21D;63735;44.730;37.818;2023-07-09T09:58:40;26.32;71.66
75155;HTU21D;63735;44.730;37.818;2023-07-09T10:01:14;26.38;71.65
75155;HTU21D;63735;44.730;37.818;2023-07-09T10:03:41;26.42;71.29
75155;HTU21D;63735;44.730;37.818;2023-07-09T10:06:16;26.43;71.00
75155;HTU21D;63735;44.730;37.818;2023-07-09T10:11:48;26.34;71.05
75155;HTU21D;63735;44.730;37.818;2023-07-09T10:17:12;26.32;71.45
75155;HTU21D;63735;44.730;37.818;2023-07-09T10:22:22;26.21;71.81
75155;HTU21D;63735;44.730;37.818;2023-07-09T10:27:35;26.01;71.84
75155;HTU21D;63735;44.730;37.818;2023-07-09T10:30:41;25.91;71.76
75155;HTU21D;63735;44.730;37.818;2023-07-09T10:33:11;25.87;71.63
75155;HTU21D;63735;44.730;37.818;2023-07-09T10:41:04;25.86;71.32
75155;HTU21D;63735;44.730;37.818;2023-07-09T10:43:59;25.80;71.32
75155;HTU21D;63735;44.730;37.818;2023-07-09T10:46:29;25.78;71.39
75155;HTU21D;63735;44.730;37.818;2023-07-09T10:48:57;25.75;71.45
75155;HTU21D;63735;44.730;37.818;2023-07-09T10:52:01;25.71;71.69
75155;HTU21D;63735;44.730;37.818;2023-07-09T10:57:13;25.72;71.87
75155;HTU21D;63735;44.730;37.818;2023-07-09T10:59:41;25.74;71.82
75155;HTU21D;63735;44.730;37.818;2023-07-09T11:02:30;25.78;71.78
75155;HTU21D;63735;44.730;37.818;2023-07-09T11:04:59;25.83;71.77
75155;HTU21D;63735;44.730;37.818;2023-07-09T11:07:31;25.84;71.93
75155;HTU21D;63735;44.730;37.818;2023-07-09T11:09:59;25.91;71.87
75155;HTU21D;63735;44.730;37.818;2023-07-09T11:12:34;25.94;71.68
75155;HTU21D;63735;44.730;37.818;2023-07-09T11:15:06;25.88;71.76
75155;HTU21D;63735;44.730;37.818;2023-07-09T11:17:37;25.84;71.89
75155;HTU21D;63735;44.730;37.818;2023-07-09T11:35:20;25.46;72.15
75155;HTU21D;63735;44.730;37.818;2023-07-09T11:37:46;25.47;72.05
75155;HTU21D;63735;44.730;37.818;2023-07-09T11:40:12;25.43;72.02
75155;HTU21D;63735;44.730;37.818;2023-07-09T11:42:55;25.50;71.86
75155;HTU21D;63735;44.730;37.818;2023-07-09T11:45:28;25.59;71.60
75155;HTU21D;63735;44.730;37.818;2023-07-09T11:50:39;25.74;70.99
75155;HTU21D;63735;44.730;37.818;2023-07-09T11:53:36;25.79;70.64
75155;HTU21D;63735;44.730;37.818;2023-07-09T11:56:03;25.87;70.48
75155;HTU21D;63735;44.730;37.818;2023-07-09T11:58:30;25.88;69.97
75155;HTU21D;63735;44.730;37.818;2023-07-09T12:00:57;25.95;69.80
75155;HTU21D;63735;44.730;37.818;2023-07-09T12:03:30;26.07;69.49
75155;HTU21D;63735;44.730;37.818;2023-07-09T12:06:03;26.17;69.23
75155;HTU21D;63735;44.730;37.818;2023-07-09T12:08:40;26.09;68.94
75155;HTU21D;63735;44.730;37.818;2023-07-09T12:11:28;25.86;69.22
75155;HTU21D;63735;44.730;37.818;2023-07-09T12:14:02;25.76;69.53
75155;HTU21D;63735;44.730;37.818;2023-07-09T12:16:33;25.72;69.45
75155;HTU21D;63735;44.730;37.818;2023-07-09T12:18:59;25.78;69.33
75155;HTU21D;63735;44.730;37.818;2023-07-09T12:21:26;25.82;69.41
75155;HTU21D;63735;44.730;37.818;2023-07-09T12:23:54;25.83;68.61
75155;HTU21D;63735;44.730;37.818;2023-07-09T12:26:21;25.74;68.69
75155;HTU21D;63735;44.730;37.818;2023-07-09T12:28:56;25.67;68.65
75155;HTU21D;63735;44.730;37.818;2023-07-09T12:31:28;25.60;68.72
75155;HTU21D;63735;44.730;37.818;2023-07-09T12:33:56;25.57;68.76
75155;HTU21D;63735;44.730;37.818;2023-07-09T12:36:24;25.50;68.99
75155;HTU21D;63735;44.730;37.818;2023-07-09T12:38:53;25.40;69.20
75155;HTU21D;63735;44.730;37.818;2023-07-09T12:41:26;25.31;69.34
75155;HTU21D;63735;44.730;37.818;2023-07-09T12:43:55;25.29;69.50
75155;HTU21D;63735;44.730;37.818;2023-07-09T12:46:22;25.24;69.94
75155;HTU21D;63735;44.730;37.818;2023-07-09T12:48:49;25.17;70.26
75155;HTU21D;63735;44.730;37.818;2023-07-09T12:51:27;25.12;70.92
75155;HTU21D;63735;44.730;37.818;2023-07-09T12:54:05;25.16;71.49
75155;HTU21D;63735;44.730;37.818;2023-07-09T12:56:35;25.19;71.71
75155;HTU21D;63735;44.730;37.818;2023-07-09T12:59:03;25.18;71.99
75155;HTU21D;63735;44.730;37.818;2023-07-09T13:01:34;25.12;72.09
75155;HTU21D;63735;44.730;37.818;2023-07-09T13:04:01;25.07;72.35
75155;HTU21D;63735;44.730;37.818;2023-07-09T13:06:35;25.09;72.73
75155;HTU21D;63735;44.730;37.818;2023-07-09T13:09:10;25.09;72.74
75155;HTU21D;63735;44.730;37.818;2023-07-09T13:11:39;25.10;72.58
75155;HTU21D;63735;44.730;37.818;2023-07-09T13:14:11;25.09;72.44
75155;HTU21D;63735;44.730;37.818;2023-07-09T13:16:41;25.07;72.38
75155;HTU21D;63735;44.730;37.818;2023-07-09T13:19:07;24.99;72.64
75155;HTU21D;63735;44.730;37.818;2023-07-09T13:21:33;24.99;72.90
75155;HTU21D;63735;44.730;37.818;2023-07-09T13:23:59;25.02;73.04
75155;HTU21D;63735;44.730;37.818;2023-07-09T13:26:25;25.06;73.15
75155;HTU21D;63735;44.730;37.818;2023-07-09T13:28:51;25.07;73.06
75155;HTU21D;63735;44.730;37.818;2023-07-09T13:31:19;25.06;73.28
75155;HTU21D;63735;44.730;37.818;2023-07-09T13:33:57;25.05;73.56
75155;HTU21D;63735;44.730;37.818;2023-07-09T13:36:24;25.05;73.65
75155;HTU21D;63735;44.730;37.818;2023-07-09T13:38:50;25.03;73.75
75155;HTU21D;63735;44.730;37.818;2023-07-09T13:41:18;25.01;73.85
75155;HTU21D;63735;44.730;37.818;2023-07-09T13:43:48;24.95;74.03
75155;HTU21D;63735;44.730;37.818;2023-07-09T13:46:14;24.92;74.20
75155;HTU21D;63735;44.730;37.818;2023-07-09T13:48:42;24.89;74.45
75155;HTU21D;63735;44.730;37.818;2023-07-09T13:51:23;24.77;74.47
75155;HTU21D;63735;44.730;37.818;2023-07-09T13:53:51;24.64;74.31
75155;HTU21D;63735;44.730;37.818;2023-07-09T13:56:18;24.50;74.36
75155;HTU21D;63735;44.730;37.818;2023-07-09T13:58:44;24.40;74.45
75155;HTU21D;63735;44.730;37.818;2023-07-09T14:01:20;24.30;74.64
75155;HTU21D;63735;44.730;37.818;2023-07-09T14:03:46;24.29;74.87
75155;HTU21D;63735;44.730;37.818;2023-07-09T14:06:14;24.28;75.05
75155;HTU21D;63735;44.730;37.818;2023-07-09T14:08:40;24.29;75.31
75155;HTU21D;63735;44.730;37.818;2023-07-09T14:11:15;24.33;75.63
75155;HTU21D;63735;44.730;37.818;2023-07-09T14:13:42;24.42;75.76
75155;HTU21D;63735;44.730;37.818;2023-07-09T14:16:10;24.50;75.98
75155;HTU21D;63735;44.730;37.818;2023-07-09T14:18:37;24.58;76.10
75155;HTU21D;63735;44.730;37.818;2023-07-09T14:21:18;24.58;76.15
75155;HTU21D;63735;44.730;37.818;2023-07-09T14:23:46;24.44;76.02
75155;HTU21D;63735;44.730;37.818;2023-07-09T14:26:12;24.31;76.30
75155;HTU21D;63735;44.730;37.818;2023-07-09T14:28:38;24.28;76.35
75155;HTU21D;63735;44.730;37.818;2023-07-09T14:31:21;24.19;76.25
75155;HTU21D;63735;44.730;37.818;2023-07-09T14:33:48;24.11;76.38
75155;HTU21D;63735;44.730;37.818;2023-07-09T14:36:14;24.10;76.31
75155;HTU21D;63735;44.730;37.818;2023-07-09T14:38:40;23.97;76.36
75155;HTU21D;63735;44.730;37.818;2023-07-09T14:41:22;23.89;76.59
75155;HTU21D;63735;44.730;37.818;2023-07-09T14:43:49;23.86;76.66
75155;HTU21D;63735;44.730;37.818;2023-07-09T14:46:17;23.90;76.80
75155;HTU21D;63735;44.730;37.818;2023-07-09T14:48:50;23.90;76.58
75155;HTU21D;63735;44.730;37.818;2023-07-09T14:51:16;23.82;76.53
75155;HTU21D;63735;44.730;37.818;2023-07-09T14:53:44;23.75;76.65
75155;HTU21D;63735;44.730;37.818;2023-07-09T14:56:13;23.76;76.70
75155;HTU21D;63735;44.730;37.818;2023-07-09T14:58:39;23.82;76.60
75155;HTU21D;63735;44.730;37.818;2023-07-09T15:01:11;23.86;76.61
75155;HTU21D;63735;44.730;37.818;2023-07-09T15:03:37;23.94;76.60
75155;HTU21D;63735;44.730;37.818;2023-07-09T15:06:03;23.98;76.60
75155;HTU21D;63735;44.730;37.818;2023-07-09T15:08:29;24.01;76.59
75155;HTU21D;63735;44.730;37.818;2023-07-09T15:10:55;24.04;76.60
75155;HTU21D;63735;44.730;37.818;2023-07-09T15:13:30;24.03;76.66
75155;HTU21D;63735;44.730;37.818;2023-07-09T15:15:58;24.06;76.67
75155;HTU21D;63735;44.730;37.818;2023-07-09T15:18:24;24.12;76.72
75155;HTU21D;63735;44.730;37.818;2023-07-09T15:20:55;24.11;76.74
75155;HTU21D;63735;44.730;37.818;2023-07-09T15:23:22;24.08;76.85
75155;HTU21D;63735;44.730;37.818;2023-07-09T15:25:49;24.05;77.00
75155;HTU21D;63735;44.730;37.818;2023-07-09T15:28:16;24.05;77.07
75155;HTU21D;63735;44.730;37.818;2023-07-09T15:30:42;24.06;77.13
75155;HTU21D;63735;44.730;37.818;2023-07-09T15:33:19;24.05;77.26
75155;HTU21D;63735;44.730;37.818;2023-07-09T15:35:47;24.05;77.32
75155;HTU21D;63735;44.730;37.818;2023-07-09T15:38:20;24.06;77.31
75155;HTU21D;63735;44.730;37.818;2023-07-09T15:40:47;24.05;77.22
75155;HTU21D;63735;44.730;37.818;2023-07-09T15:43:13;24.06;77.06
75155;HTU21D;63735;44.730;37.818;2023-07-09T15:45:45;24.01;77.08
75155;HTU21D;63735;44.730;37.818;2023-07-09T15:48:26;23.94;77.11
75155;HTU21D;63735;44.730;37.818;2023-07-09T15:50:53;23.87;77.11
75155;HTU21D;63735;44.730;37.818;2023-07-09T15:53:20;23.80;77.21
75155;HTU21D;63735;44.730;37.818;2023-07-09T15:55:46;23.75;77.19
75155;HTU21D;63735;44.730;37.818;2023-07-09T15:58:20;23.71;77.24
75155;HTU21D;63735;44.730;37.818;2023-07-09T16:00:47;23.68;77.21
75155;HTU21D;63735;44.730;37.818;2023-07-09T16:03:13;23.64;77.13
75155;HTU21D;63735;44.730;37.818;2023-07-09T16:05:39;23.62;77.16
75155;HTU21D;63735;44.730;37.818;2023-07-09T16:08:05;23.67;77.19
75155;HTU21D;63735;44.730;37.818;2023-07-09T16:10:31;23.75;77.14